createdAt,value
2018-08-14T00:01:25.890Z,7.50
2018-08-14T00:03:56.439Z,7.93
2018-08-14T00:06:26.740Z,8.23
2018-08-14T00:08:57.356Z,8.40
2018-08-14T00:11:27.659Z,7.70
2018-08-14T00:13:58.258Z,8.13
2018-08-14T00:16:28.389Z,8.57
2018-08-14T00:18:58.687Z,8.47
2018-08-14T00:21:29.194Z,7.57
2018-08-14T00:23:59.483Z,8.30
2018-08-14T00:26:30.033Z,9.00
2018-08-14T00:29:00.446Z,8.20
2018-08-14T00:31:31.107Z,8.83
2018-08-14T00:34:01.335Z,7.37
2018-08-14T00:36:31.793Z,7.27
2018-08-14T00:39:02.085Z,7.63
2018-08-14T00:41:32.492Z,7.73
2018-08-14T00:44:02.829Z,8.30
2018-08-14T00:46:33.102Z,7.10
2018-08-14T00:49:03.590Z,7.67
2018-08-14T00:51:34.165Z,6.80
2018-08-14T00:54:04.681Z,7.00
2018-08-14T00:56:35.139Z,6.60
2018-08-14T00:59:05.746Z,5.80
2018-08-14T01:01:35.878Z,10.03
2018-08-14T01:04:06.296Z,7.53
2018-08-14T01:06:36.764Z,5.63
2018-08-14T01:09:09.269Z,5.50
2018-08-14T01:11:39.582Z,6.13
2018-08-14T01:14:09.881Z,4.87
2018-08-14T01:16:40.398Z,4.80
2018-08-14T01:19:10.858Z,4.83
2018-08-14T01:21:41.382Z,5.63
2018-08-14T01:24:11.854Z,5.23
2018-08-14T01:26:41.979Z,4.93
2018-08-14T01:29:12.373Z,5.30
2018-08-14T01:31:42.794Z,4.63
2018-08-14T01:34:13.325Z,4.57
2018-08-14T01:36:43.726Z,5.30
2018-08-14T01:39:14.601Z,4.90
2018-08-14T01:41:45.254Z,4.67
2018-08-14T01:44:15.506Z,4.37
2018-08-14T01:46:45.951Z,4.73
2018-08-14T01:49:16.407Z,4.17
2018-08-14T01:51:46.827Z,4.60
2018-08-14T01:54:17.362Z,4.97
2018-08-14T01:56:47.863Z,4.93
2018-08-14T01:59:18.104Z,5.10
2018-08-14T02:01:48.534Z,5.10
2018-08-14T02:04:18.928Z,6.13
2018-08-14T02:06:49.363Z,7.20
2018-08-14T02:09:20.080Z,6.53
2018-08-14T02:11:50.762Z,6.20
2018-08-14T02:14:21.170Z,6.30
2018-08-14T02:16:51.919Z,5.90
2018-08-14T02:19:22.377Z,7.03
2018-08-14T02:21:52.786Z,6.03
2018-08-14T02:24:26.031Z,6.20
2018-08-14T02:26:56.450Z,7.50
2018-08-14T02:29:26.798Z,6.03
2018-08-14T02:31:57.139Z,6.50
2018-08-14T02:34:27.505Z,8.10
2018-08-14T02:36:57.963Z,7.23
2018-08-14T02:39:28.547Z,7.57
2018-08-14T02:41:58.748Z,7.60
2018-08-14T02:44:29.143Z,7.40
2018-08-14T02:46:59.685Z,6.97
2018-08-14T02:49:30.102Z,8.27
2018-08-14T02:52:00.524Z,7.90
2018-08-14T02:54:31.786Z,8.33
2018-08-14T02:57:01.926Z,8.97
2018-08-14T02:59:32.246Z,9.50
2018-08-14T03:02:02.563Z,9.00
2018-08-14T03:04:32.873Z,8.07
2018-08-14T03:07:03.281Z,9.00
2018-08-14T03:09:33.865Z,9.73
2018-08-14T03:12:04.083Z,8.47
2018-08-14T03:14:34.433Z,9.30
2018-08-14T03:17:04.509Z,9.13
2018-08-14T03:19:37.749Z,8.00
2018-08-14T03:22:08.220Z,8.57
2018-08-14T03:24:38.580Z,8.30
2018-08-14T03:27:08.843Z,8.17
2018-08-14T03:29:39.280Z,9.00
2018-08-14T03:32:09.824Z,9.37
2018-08-14T03:34:40.435Z,5.53
2018-08-14T03:37:10.885Z,4.80
2018-08-14T03:39:41.084Z,5.67
2018-08-14T03:42:11.539Z,7.60
2018-08-14T03:44:41.934Z,6.33
2018-08-14T03:47:12.171Z,5.63
2018-08-14T03:49:42.517Z,5.67
2018-08-14T03:52:12.785Z,5.90
2018-08-14T03:54:43.150Z,6.40
2018-08-14T03:57:13.680Z,6.13
2018-08-14T03:59:44.214Z,5.47
2018-08-14T04:02:14.520Z,5.10
2018-08-14T04:04:44.918Z,5.20
2018-08-14T04:07:15.173Z,4.83
2018-08-14T04:09:45.623Z,5.70
2018-08-14T04:12:15.945Z,6.10
2018-08-14T04:14:46.292Z,6.57
2018-08-14T04:17:16.788Z,6.80
2018-08-14T04:19:47.297Z,5.90
2018-08-14T04:22:17.755Z,6.43
2018-08-14T04:24:48.185Z,13.43
2018-08-14T04:27:18.472Z,16.37
2018-08-14T04:29:48.828Z,16.37
2018-08-14T04:32:19.234Z,8.47
2018-08-14T04:34:49.698Z,7.47
2018-08-14T04:37:19.961Z,8.17
2018-08-14T04:39:50.403Z,7.37
2018-08-14T04:42:20.654Z,8.70
2018-08-14T04:44:51.210Z,6.80
2018-08-14T04:47:21.702Z,7.17
2018-08-14T04:49:51.958Z,7.53
2018-08-14T04:52:22.276Z,7.17
2018-08-14T04:54:52.708Z,15.33
2018-08-14T04:57:23.088Z,7.13
2018-08-14T04:59:53.470Z,7.00
2018-08-14T05:02:23.774Z,7.37
2018-08-14T05:04:54.080Z,7.40
2018-08-14T05:07:24.620Z,9.63
2018-08-14T05:09:54.898Z,8.53
2018-08-14T05:12:25.325Z,8.03
2018-08-14T05:14:55.750Z,7.27
2018-08-14T05:17:26.216Z,6.43
2018-08-14T05:19:56.672Z,7.60
2018-08-14T05:22:26.927Z,6.63
2018-08-14T05:24:57.310Z,6.47
2018-08-14T05:27:27.716Z,9.57
2018-08-14T05:29:58.288Z,6.60
2018-08-14T05:32:28.479Z,7.90
2018-08-14T05:34:58.876Z,10.33
2018-08-14T05:37:29.301Z,7.00
2018-08-14T05:39:59.601Z,7.73
2018-08-14T05:42:29.855Z,6.27
2018-08-14T05:45:00.335Z,7.50
2018-08-14T05:47:30.831Z,6.47
2018-08-14T05:50:01.051Z,6.07
2018-08-14T05:52:31.535Z,5.90
2018-08-14T05:55:02.080Z,5.63
2018-08-14T05:57:32.595Z,6.43
2018-08-14T06:00:03.246Z,4.80
2018-08-14T06:02:33.819Z,6.63
2018-08-14T06:05:04.003Z,6.57
2018-08-14T06:07:34.325Z,5.23
2018-08-14T06:10:05.153Z,5.57
2018-08-14T06:12:35.765Z,6.73
2018-08-14T06:15:07.930Z,8.43
2018-08-14T06:17:38.875Z,5.80
2018-08-14T06:20:13.282Z,5.30
2018-08-14T06:22:43.987Z,4.00
2018-08-14T06:25:14.504Z,5.87
2018-08-14T06:27:44.946Z,7.33
2018-08-14T06:30:19.467Z,5.83
2018-08-14T06:32:51.379Z,7.10
2018-08-14T06:35:21.865Z,5.57
2018-08-14T06:37:52.246Z,6.60
2018-08-14T06:40:22.698Z,5.43
2018-08-14T06:42:53.107Z,5.97
2018-08-14T06:45:24.434Z,8.60
2018-08-14T06:47:55.004Z,5.50
2018-08-14T06:50:25.561Z,7.10
2018-08-14T06:52:55.867Z,6.03
2018-08-14T06:55:26.420Z,5.47
2018-08-14T06:57:56.631Z,8.90
2018-08-14T07:00:26.900Z,8.27
2018-08-14T07:02:57.259Z,7.00
2018-08-14T07:05:27.821Z,9.10
2018-08-14T07:07:58.097Z,6.77
2018-08-14T07:10:28.359Z,6.27
2018-08-14T07:12:58.781Z,6.40
2018-08-14T07:15:29.130Z,7.10
2018-08-14T07:17:59.617Z,11.43
2018-08-14T07:20:29.911Z,8.20
2018-08-14T07:23:00.278Z,7.53
2018-08-14T07:25:30.980Z,7.63
2018-08-14T07:28:01.454Z,7.80
2018-08-14T07:30:31.908Z,8.00
2018-08-14T07:33:02.380Z,9.47
2018-08-14T07:35:32.616Z,9.60
2018-08-14T07:38:02.892Z,8.93
2018-08-14T07:40:33.203Z,11.87
2018-08-14T07:43:03.694Z,13.30
2018-08-14T07:45:34.488Z,13.07
2018-08-14T07:48:05.207Z,9.87
2018-08-14T07:50:35.482Z,9.50
2018-08-14T07:53:05.861Z,7.97
2018-08-14T07:55:36.345Z,6.63
2018-08-14T07:58:06.771Z,6.80
2018-08-14T08:00:37.364Z,7.23
2018-08-14T08:03:08.025Z,6.97
2018-08-14T08:05:39.383Z,8.97
2018-08-14T08:08:10.038Z,7.90
2018-08-14T08:10:40.460Z,7.33
2018-08-14T08:13:10.854Z,7.03
2018-08-14T08:15:41.190Z,7.77
2018-08-14T08:18:11.655Z,7.87
2018-08-14T08:20:41.969Z,12.00
2018-08-14T08:23:12.339Z,8.80
2018-08-14T08:25:42.695Z,8.73
2018-08-14T08:28:13.111Z,8.17
2018-08-14T08:30:43.545Z,7.87
2018-08-14T08:33:14.072Z,6.70
2018-08-14T08:35:44.444Z,8.03
2018-08-14T08:38:14.818Z,7.73
2018-08-14T08:40:45.113Z,7.87
2018-08-14T08:43:15.337Z,9.00
2018-08-14T08:45:45.901Z,10.63
2018-08-14T08:48:20.795Z,12.13
2018-08-14T08:50:51.507Z,14.30
2018-08-14T08:53:22.042Z,8.00
2018-08-14T08:55:52.660Z,8.10
2018-08-14T08:58:23.051Z,10.30
2018-08-14T09:00:53.660Z,9.10
2018-08-14T09:03:24.199Z,12.27
2018-08-14T09:05:54.762Z,8.93
2018-08-14T09:08:25.363Z,7.30
2018-08-14T09:10:56.006Z,7.10
2018-08-14T09:13:26.537Z,8.47
2018-08-14T09:15:56.975Z,5.87
2018-08-14T09:18:27.148Z,6.33
2018-08-14T09:20:57.495Z,7.67
2018-08-14T09:23:27.759Z,7.57
2018-08-14T09:25:58.162Z,6.43
2018-08-14T09:28:28.691Z,6.93
2018-08-14T09:30:59.120Z,7.23
2018-08-14T09:33:29.532Z,7.00
2018-08-14T09:35:59.982Z,7.73
2018-08-14T09:38:30.156Z,7.80
2018-08-14T09:41:00.638Z,8.07
2018-08-14T09:43:31.011Z,6.77
2018-08-14T09:46:01.423Z,9.07
2018-08-14T09:48:31.777Z,6.57
2018-08-14T09:51:02.422Z,6.07
2018-08-14T09:53:32.819Z,7.43
2018-08-14T09:56:03.081Z,7.50
2018-08-14T09:58:33.357Z,8.10
2018-08-14T10:01:09.757Z,8.20
2018-08-14T10:03:45.312Z,7.03
2018-08-14T10:06:20.782Z,6.17
2018-08-14T10:08:53.242Z,7.07
2018-08-14T10:11:23.601Z,6.87
2018-08-14T10:13:54.155Z,9.50
2018-08-14T10:16:24.619Z,5.97
2018-08-14T10:18:55.056Z,7.03
2018-08-14T10:21:25.356Z,6.70
2018-08-14T10:23:55.779Z,6.63
2018-08-14T10:26:26.279Z,6.90
2018-08-14T10:28:56.763Z,6.00
2018-08-14T10:31:27.315Z,6.40
2018-08-14T10:33:57.529Z,6.80
2018-08-14T10:36:27.881Z,6.90
2018-08-14T10:38:58.240Z,7.33
2018-08-14T10:41:28.746Z,6.43
2018-08-14T10:43:58.999Z,5.73
2018-08-14T10:46:29.381Z,7.53
2018-08-14T10:49:00.346Z,6.23
2018-08-14T10:51:30.718Z,6.83
2018-08-14T10:54:01.221Z,6.17
2018-08-14T10:56:31.630Z,7.77
2018-08-14T10:59:02.070Z,7.40
2018-08-14T11:01:32.676Z,6.50
2018-08-14T11:04:03.287Z,5.33
2018-08-14T11:06:33.551Z,6.97
2018-08-14T11:09:04.967Z,6.10
2018-08-14T11:11:40.449Z,7.07
2018-08-14T11:14:14.933Z,5.77
2018-08-14T11:16:46.596Z,8.80
2018-08-14T11:19:16.927Z,7.07
2018-08-14T11:21:47.358Z,6.93
2018-08-14T11:24:17.788Z,6.87
2018-08-14T11:26:48.247Z,9.50
2018-08-14T11:29:18.537Z,7.90
2018-08-14T11:31:49.098Z,6.20
2018-08-14T11:34:19.550Z,7.53
2018-08-14T11:36:49.836Z,7.40
2018-08-14T11:39:20.463Z,6.83
2018-08-14T11:41:50.896Z,7.27
2018-08-14T11:44:21.185Z,9.30
2018-08-14T11:46:51.657Z,6.80
2018-08-14T11:49:22.184Z,8.40
2018-08-14T11:51:52.725Z,9.10
2018-08-14T11:54:23.643Z,7.80
2018-08-14T11:56:54.230Z,6.03
2018-08-14T11:59:29.613Z,7.63
2018-08-14T12:02:00.118Z,5.70
2018-08-14T12:04:30.448Z,6.13
2018-08-14T12:07:01.118Z,9.23
2018-08-14T12:09:31.524Z,6.77
2018-08-14T12:12:02.102Z,13.63
2018-08-14T12:14:32.415Z,7.40
2018-08-14T12:17:02.817Z,7.97
2018-08-14T12:19:33.238Z,8.83
2018-08-14T12:22:03.818Z,6.67
2018-08-14T12:24:34.040Z,6.80
2018-08-14T12:27:04.546Z,7.37
2018-08-14T12:29:34.946Z,6.77
2018-08-14T12:32:05.344Z,6.83
2018-08-14T12:34:35.847Z,5.93
2018-08-14T12:37:06.374Z,6.00
2018-08-14T12:39:36.867Z,6.63
2018-08-14T12:42:07.527Z,6.10
2018-08-14T12:44:38.015Z,5.80
2018-08-14T12:47:08.370Z,6.77
2018-08-14T12:49:38.757Z,6.70
2018-08-14T12:52:09.332Z,7.93
2018-08-14T12:54:39.609Z,6.67
2018-08-14T12:57:10.081Z,7.63
2018-08-14T12:59:41.044Z,6.37
2018-08-14T13:02:11.470Z,5.90
2018-08-14T13:04:41.674Z,6.10
2018-08-14T13:07:12.072Z,6.03
2018-08-14T13:09:42.470Z,7.40
2018-08-14T13:12:12.927Z,8.20
2018-08-14T13:14:43.270Z,7.10
2018-08-14T13:17:13.702Z,7.33
2018-08-14T13:19:44.111Z,5.93
2018-08-14T13:22:14.465Z,6.40
2018-08-14T13:24:44.832Z,6.43
2018-08-14T13:27:15.320Z,5.63
2018-08-14T13:29:45.906Z,5.20
2018-08-14T13:32:16.124Z,5.20
2018-08-14T13:34:46.537Z,6.53
2018-08-14T13:37:17.074Z,5.40
2018-08-14T13:39:47.677Z,6.13
2018-08-14T13:42:18.359Z,4.60
2018-08-14T13:44:48.265Z,7.47
2018-08-14T13:47:18.681Z,6.60
2018-08-14T13:49:49.218Z,5.63
2018-08-14T13:52:19.775Z,5.43
2018-08-14T13:54:50.694Z,5.33
2018-08-14T13:57:21.138Z,5.63
2018-08-14T13:59:51.346Z,5.47
2018-08-14T14:02:21.895Z,4.63
2018-08-14T14:04:52.437Z,4.20
2018-08-14T14:07:22.822Z,5.43
2018-08-14T14:09:53.259Z,4.60
2018-08-14T14:12:23.606Z,5.97
2018-08-14T14:14:53.984Z,4.77
2018-08-14T14:17:24.440Z,6.30
2018-08-14T14:19:54.905Z,5.90
2018-08-14T14:22:25.175Z,5.17
2018-08-14T14:24:55.480Z,6.40
2018-08-14T14:27:25.956Z,5.27
2018-08-14T14:29:56.457Z,5.10
2018-08-14T14:32:27.217Z,4.83
2018-08-14T14:34:57.680Z,5.00
2018-08-14T14:37:27.992Z,6.97
2018-08-14T14:39:58.259Z,6.23
2018-08-14T14:42:28.750Z,5.40
2018-08-14T14:44:59.040Z,4.40
2018-08-14T14:47:29.238Z,5.27
2018-08-14T14:49:59.753Z,5.00
2018-08-14T14:52:30.713Z,4.83
2018-08-14T14:55:01.111Z,4.60
2018-08-14T14:57:31.530Z,5.87
2018-08-14T15:00:02.051Z,5.60
2018-08-14T15:02:32.481Z,4.80
2018-08-14T15:05:02.799Z,5.37
2018-08-14T15:07:33.142Z,5.33
2018-08-14T15:10:03.604Z,4.77
2018-08-14T15:12:34.144Z,5.30
2018-08-14T15:15:04.658Z,6.33
2018-08-14T15:17:35.035Z,5.67
2018-08-14T15:20:07.492Z,7.30
2018-08-14T15:22:37.872Z,7.07
2018-08-14T15:25:11.493Z,6.80
2018-08-14T15:28:59.739Z,7.90
2018-08-14T15:31:30.049Z,5.30
2018-08-14T15:34:00.958Z,6.53
2018-08-14T15:36:32.294Z,7.73
2018-08-14T15:39:04.480Z,6.50
2018-08-14T15:41:34.757Z,5.70
2018-08-14T15:44:05.210Z,6.50
2018-08-14T15:46:35.692Z,5.73
2018-08-14T15:49:06.094Z,6.73
2018-08-14T15:51:36.451Z,6.57
2018-08-14T15:54:07.886Z,6.97
2018-08-14T15:56:38.308Z,9.00
2018-08-14T15:59:08.738Z,7.03
2018-08-14T16:01:39.182Z,7.40
2018-08-14T16:04:12.500Z,7.37
2018-08-14T16:06:42.824Z,5.47
2018-08-14T16:09:21.466Z,5.83
2018-08-14T16:11:52.092Z,5.70
2018-08-14T16:14:22.463Z,6.03
2018-08-14T16:16:52.860Z,5.97
2018-08-14T16:19:23.466Z,8.07
2018-08-14T16:21:53.747Z,5.20
2018-08-14T16:24:24.159Z,6.10
2018-08-14T16:26:54.369Z,5.87
2018-08-14T16:29:24.746Z,5.80
2018-08-14T16:31:54.938Z,6.57
2018-08-14T16:34:25.497Z,4.60
2018-08-14T16:36:55.892Z,5.67
2018-08-14T16:39:26.436Z,4.77
2018-08-14T16:41:56.646Z,5.60
2018-08-14T16:44:27.095Z,9.20
2018-08-14T16:46:57.474Z,5.50
2018-08-14T16:49:27.963Z,5.17
2018-08-14T16:51:58.480Z,5.50
2018-08-14T16:54:28.971Z,5.20
2018-08-14T16:56:59.227Z,5.80
2018-08-14T16:59:29.663Z,5.63
2018-08-14T17:02:00.053Z,5.23
2018-08-14T17:04:30.677Z,6.30
2018-08-14T17:07:00.977Z,6.40
2018-08-14T17:09:31.256Z,7.30
2018-08-14T17:12:01.702Z,5.73
2018-08-14T17:14:32.028Z,6.20
2018-08-14T17:17:02.324Z,6.63
2018-08-14T17:19:36.199Z,7.50
2018-08-14T17:22:07.715Z,7.87
2018-08-14T17:24:38.162Z,7.57
2018-08-14T17:27:08.681Z,7.33
2018-08-14T17:29:39.199Z,7.20
2018-08-14T17:32:09.461Z,7.30
2018-08-14T17:34:39.730Z,6.57
2018-08-14T17:37:10.773Z,6.40
2018-08-14T17:39:44.454Z,7.70
2018-08-14T17:42:17.812Z,7.30
2018-08-14T17:44:48.205Z,7.97
2018-08-14T17:47:18.614Z,6.80
2018-08-14T17:49:49.186Z,7.20
2018-08-14T17:52:19.370Z,7.97
2018-08-14T17:54:49.677Z,10.90
2018-08-14T17:57:20.232Z,7.13
2018-08-14T17:59:50.679Z,6.50
2018-08-14T18:02:20.995Z,8.03
2018-08-14T18:04:51.328Z,7.17
2018-08-14T18:07:21.734Z,6.87
2018-08-14T18:09:52.191Z,8.13
2018-08-14T18:12:22.810Z,9.00
2018-08-14T18:14:53.057Z,10.67
2018-08-14T18:17:23.435Z,8.90
2018-08-14T18:19:54.474Z,9.20
2018-08-14T18:22:25.021Z,9.10
2018-08-14T18:24:55.244Z,8.20
2018-08-14T18:27:25.654Z,8.50
2018-08-14T18:29:57.361Z,8.40
2018-08-14T18:32:28.147Z,9.13
2018-08-14T18:34:58.935Z,8.37
2018-08-14T18:37:29.210Z,8.07
2018-08-14T18:39:59.797Z,9.90
2018-08-14T18:42:30.427Z,10.50
2018-08-14T18:45:00.687Z,9.63
2018-08-14T18:47:31.145Z,8.97
2018-08-14T18:50:01.587Z,9.60
2018-08-14T18:52:32.195Z,9.00
2018-08-14T18:55:02.877Z,8.77
2018-08-14T18:57:33.338Z,11.30
2018-08-14T19:00:03.786Z,10.70
2018-08-14T19:02:34.211Z,11.43
2018-08-14T19:05:05.334Z,12.87
2018-08-14T19:07:35.555Z,12.63
2018-08-14T19:10:05.930Z,9.60
2018-08-14T19:12:36.390Z,10.00
2018-08-14T19:15:13.299Z,13.27
2018-08-14T19:17:44.510Z,11.00
2018-08-14T19:20:15.374Z,10.43
2018-08-14T19:22:45.842Z,9.53
2018-08-14T19:25:16.184Z,8.13
2018-08-14T19:27:46.545Z,9.50
2018-08-14T19:30:17.236Z,9.57
2018-08-14T19:32:47.732Z,12.63
2018-08-14T19:35:18.475Z,9.80
2018-08-14T19:37:50.387Z,9.10
2018-08-14T19:40:24.571Z,8.50
2018-08-14T19:42:54.991Z,10.30
2018-08-14T19:45:26.178Z,9.97
2018-08-14T19:47:56.593Z,9.90
2018-08-14T19:50:27.142Z,9.90
2018-08-14T19:52:57.587Z,8.97
2018-08-14T19:55:28.139Z,9.13
2018-08-14T19:57:58.636Z,10.97
2018-08-14T20:00:29.349Z,8.40
2018-08-14T20:02:59.791Z,9.00
2018-08-14T20:05:30.268Z,9.20
2018-08-14T20:08:00.759Z,9.03
2018-08-14T20:10:31.394Z,11.20
2018-08-14T20:13:01.619Z,10.40
2018-08-14T20:15:36.957Z,9.33
2018-08-14T20:18:07.717Z,9.33
2018-08-14T20:20:38.166Z,13.37
2018-08-14T20:23:08.634Z,10.57
2018-08-14T20:25:39.186Z,11.03
2018-08-14T20:28:09.717Z,10.43
2018-08-14T20:30:40.023Z,10.23
2018-08-14T20:33:10.469Z,11.80
2018-08-14T20:35:40.882Z,11.27
2018-08-14T20:38:11.279Z,10.80
2018-08-14T20:40:41.868Z,9.80
2018-08-14T20:43:12.373Z,10.37
2018-08-14T20:45:42.737Z,10.93
2018-08-14T20:48:13.211Z,14.73
2018-08-14T20:50:43.638Z,10.70
2018-08-14T20:53:14.223Z,10.27
2018-08-14T20:55:44.621Z,12.80
2018-08-14T20:58:15.126Z,12.67
2018-08-14T21:00:45.501Z,13.73
2018-08-14T21:03:15.912Z,10.97
2018-08-14T21:05:46.426Z,11.57
2018-08-14T21:08:16.726Z,10.70
2018-08-14T21:10:47.208Z,12.60
2018-08-14T21:13:17.610Z,14.57
2018-08-14T21:15:53.059Z,13.80
2018-08-14T21:18:23.487Z,11.13
2018-08-14T21:20:54.551Z,12.13
2018-08-14T21:23:25.029Z,13.30
2018-08-14T21:25:55.715Z,11.63
2018-08-14T21:28:27.213Z,10.60
2018-08-14T21:30:57.643Z,10.80
2018-08-14T21:33:28.002Z,11.93
2018-08-14T21:35:58.423Z,9.70
2018-08-14T21:38:28.922Z,9.20
2018-08-14T21:40:59.331Z,9.63
2018-08-14T21:43:29.686Z,8.57
2018-08-14T21:46:00.455Z,11.17
2018-08-14T21:48:30.931Z,8.80
2018-08-14T21:51:01.296Z,7.97
2018-08-14T21:53:31.646Z,10.80
2018-08-14T21:56:02.129Z,9.17
2018-08-14T21:58:32.556Z,9.70
2018-08-14T22:01:08.855Z,9.80
2018-08-14T22:03:42.201Z,9.53
2018-08-14T22:06:13.572Z,10.83
2018-08-14T22:08:43.870Z,10.13
2018-08-14T22:11:15.110Z,8.50
2018-08-14T22:13:45.686Z,8.77
2018-08-14T22:16:15.850Z,7.10
2018-08-14T22:18:46.296Z,8.30
2018-08-14T22:21:16.775Z,9.33
2018-08-14T22:23:47.445Z,11.00
2018-08-14T22:26:17.791Z,7.17
2018-08-14T22:28:48.103Z,8.80
2018-08-14T22:31:18.542Z,7.73
2018-08-14T22:33:49.073Z,6.60
2018-08-14T22:36:19.396Z,5.97
2018-08-14T22:38:49.759Z,6.37
2018-08-14T22:41:20.164Z,6.50
2018-08-14T22:43:50.677Z,5.63
2018-08-14T22:46:21.013Z,5.57
2018-08-14T22:48:51.513Z,5.70
2018-08-14T22:51:22.191Z,6.20
2018-08-14T22:53:52.721Z,5.03
2018-08-14T22:56:22.900Z,6.17
2018-08-14T22:58:53.400Z,5.37
2018-08-14T23:01:23.851Z,8.70
2018-08-14T23:03:54.927Z,5.20
2018-08-14T23:06:25.367Z,5.23
2018-08-14T23:08:55.687Z,6.00
2018-08-14T23:11:25.861Z,5.90
2018-08-14T23:13:56.076Z,5.40
2018-08-14T23:16:33.233Z,4.73
2018-08-14T23:19:03.830Z,5.17
2018-08-14T23:21:34.267Z,5.00
2018-08-14T23:24:04.422Z,4.20
2018-08-14T23:26:34.890Z,5.03
2018-08-14T23:29:05.317Z,4.70
2018-08-14T23:31:35.899Z,7.27
2018-08-14T23:34:11.562Z,6.27
2018-08-14T23:36:41.801Z,4.53
2018-08-14T23:39:13.583Z,4.87
2018-08-14T23:41:44.320Z,4.70
2018-08-14T23:44:14.594Z,7.30
2018-08-14T23:46:45.008Z,4.83
2018-08-14T23:49:15.363Z,5.37
2018-08-14T23:51:45.728Z,4.60
2018-08-14T23:54:16.352Z,5.37
2018-08-14T23:56:46.708Z,5.90
2018-08-14T23:59:16.973Z,5.37
